Time;durP1;ratioP1;P1;durP2;ratioP2;P2;SDS_P1;SDS_P2;PMS_P1;PMS_P2;Temp;Humidity;BMP_temperature;BMP_pressure;BME280_temperature;BME280_humidity;BME280_pressure;Samples;Min_cycle;Max_cycle;Signal;HPM_P1;HPM_P2
2023/02/25 00:00:18;;;;;;;10.45;1.77;;;4.30;99.90;;;;;;4994196;28;20041;-67
2023/02/25 00:02:51;;;;;;;12.27;1.73;;;4.30;99.90;;;;;;5007504;28;20065;-66
2023/02/25 00:05:17;;;;;;;6.70;1.20;;;4.30;99.90;;;;;;5011578;28;20176;-67
2023/02/25 00:07:43;;;;;;;10.32;1.55;;;4.40;99.90;;;;;;5011423;28;20099;-67
2023/02/25 00:10:10;;;;;;;19.55;2.17;;;4.40;99.90;;;;;;5015868;28;20048;-66
2023/02/25 00:12:37;;;;;;;25.95;4.10;;;4.50;99.90;;;;;;5008506;28;20181;-67
2023/02/25 00:15:04;;;;;;;17.27;1.67;;;4.60;99.90;;;;;;4993192;28;20050;-66
2023/02/25 00:17:31;;;;;;;6.68;1.00;;;4.60;99.90;;;;;;4995255;28;20049;-67
2023/02/25 00:19:57;;;;;;;6.40;1.50;;;4.40;99.90;;;;;;5010335;28;20555;-66
2023/02/25 00:22:24;;;;;;;7.88;1.20;;;4.30;99.90;;;;;;4991449;28;20085;-67
2023/02/25 00:24:54;;;;;;;6.05;1.05;;;4.30;99.90;;;;;;5000844;28;20045;-67
2023/02/25 00:27:22;;;;;;;7.10;0.70;;;4.30;99.90;;;;;;5018571;28;20498;-67
2023/02/25 00:29:51;;;;;;;5.55;0.68;;;4.20;99.90;;;;;;4993437;28;20045;-67
2023/02/25 00:32:17;;;;;;;3.50;0.57;;;4.20;99.90;;;;;;5010636;28;20080;-67
2023/02/25 00:34:43;;;;;;;2.90;0.50;;;4.10;99.90;;;;;;4990664;28;20082;-67
2023/02/25 00:37:08;;;;;;;7.13;0.50;;;4.10;99.90;;;;;;5010547;28;20436;-67
2023/02/25 00:39:43;;;;;;;4.85;1.38;;;4.10;99.90;;;;;;5008334;28;20041;-67
2023/02/25 00:42:16;;;;;;;6.25;0.60;;;4.10;99.90;;;;;;4991598;28;20050;-67
2023/02/25 00:44:47;;;;;;;8.50;1.08;;;4.00;99.90;;;;;;5019720;28;20049;-67
2023/02/25 00:47:14;;;;;;;5.95;0.73;;;4.00;99.90;;;;;;5012873;28;20062;-67
2023/02/25 00:49:40;;;;;;;10.30;1.67;;;4.10;99.90;;;;;;4991890;28;20030;-67
2023/02/25 00:52:06;;;;;;;5.55;0.88;;;4.10;99.90;;;;;;4990405;28;20091;-67
2023/02/25 00:54:33;;;;;;;11.57;1.08;;;4.20;99.90;;;;;;4991904;28;20603;-67
2023/02/25 00:56:58;;;;;;;5.25;0.85;;;4.20;99.90;;;;;;4992950;28;20629;-67
2023/02/25 00:59:24;;;;;;;7.55;1.50;;;4.20;99.90;;;;;;4993279;28;20100;-67
2023/02/25 01:01:50;;;;;;;5.93;1.15;;;4.30;99.90;;;;;;5013774;28;20092;-67
2023/02/25 01:04:16;;;;;;;5.53;1.00;;;4.30;99.90;;;;;;4990766;28;20042;-67
2023/02/25 01:06:41;;;;;;;9.05;1.15;;;4.40;99.90;;;;;;5011086;28;20148;-67
2023/02/25 01:09:12;;;;;;;21.30;1.20;;;4.30;99.90;;;;;;4991605;28;20470;-67
2023/02/25 01:11:40;;;;;;;11.93;1.85;;;4.30;99.90;;;;;;4996101;28;20050;-67
2023/02/25 01:14:13;;;;;;;12.00;2.00;;;4.60;99.90;;;;;;4990681;28;20081;-66
2023/02/25 01:16:39;;;;;;;21.60;2.20;;;4.60;99.90;;;;;;5013966;28;20052;-67
2023/02/25 01:19:15;;;;;;;10.55;1.25;;;4.50;99.90;;;;;;5008585;28;20485;-67
2023/02/25 01:21:45;;;;;;;15.00;1.60;;;4.50;99.90;;;;;;5007042;28;20492;-67
2023/02/25 01:24:14;;;;;;;13.33;1.77;;;4.40;99.90;;;;;;5010305;28;20404;-67
2023/02/25 01:26:41;;;;;;;19.63;2.60;;;4.40;99.90;;;;;;5010708;28;20082;-68
2023/02/25 01:29:13;;;;;;;12.32;1.70;;;4.40;99.90;;;;;;5009370;28;20042;-68
2023/02/25 01:31:39;;;;;;;17.92;2.17;;;4.40;99.90;;;;;;4993148;28;20496;-67
2023/02/25 01:34:06;;;;;;;13.48;1.25;;;4.40;99.90;;;;;;5020570;28;20573;-67
2023/02/25 01:36:33;;;;;;;15.38;1.73;;;4.50;99.90;;;;;;5009801;28;20053;-67
2023/02/25 01:39:00;;;;;;;14.77;2.10;;;4.50;99.90;;;;;;4989595;28;20054;-67
2023/02/25 01:41:27;;;;;;;20.35;3.28;;;4.60;99.90;;;;;;4991181;28;20049;-67
2023/02/25 01:44:16;;;;;;;21.40;2.58;;;4.70;99.90;;;;;;4989357;28;20062;-67
2023/02/25 01:46:44;;;;;;;20.42;2.40;;;4.70;99.90;;;;;;4990198;28;20095;-67
2023/02/25 01:49:23;;;;;;;12.70;1.67;;;4.70;99.90;;;;;;5008726;28;20049;-67
2023/02/25 01:51:58;;;;;;;18.13;1.95;;;4.70;99.90;;;;;;5015713;28;20646;-67
2023/02/25 01:54:23;;;;;;;17.90;2.10;;;4.60;99.90;;;;;;4991462;28;20199;-67
2023/02/25 01:56:54;;;;;;;18.10;2.10;;;4.60;99.90;;;;;;4999601;28;20131;-67
2023/02/25 01:59:23;;;;;;;18.25;2.45;;;4.60;99.90;;;;;;5008641;28;20500;-67
2023/02/25 02:01:49;;;;;;;9.48;1.50;;;4.50;99.90;;;;;;5007879;28;20081;-67
2023/02/25 02:04:17;;;;;;;12.63;1.58;;;4.60;99.90;;;;;;4973899;28;20572;-67
2023/02/25 02:06:45;;;;;;;8.93;1.42;;;4.60;99.90;;;;;;4990809;28;20120;-67
2023/02/25 02:09:15;;;;;;;10.13;1.20;;;4.60;99.90;;;;;;5006635;28;20073;-67
2023/02/25 02:11:41;;;;;;;7.00;0.80;;;4.60;99.90;;;;;;5000107;28;20041;-67
2023/02/25 02:14:10;;;;;;;12.30;1.33;;;4.60;99.90;;;;;;5007091;28;20054;-67
2023/02/25 02:16:36;;;;;;;4.22;0.80;;;4.50;99.90;;;;;;4990792;28;20431;-67
2023/02/25 02:19:21;;;;;;;11.68;1.35;;;4.50;99.90;;;;;;4990132;28;20057;-67
2023/02/25 02:22:11;;;;;;;7.00;1.13;;;4.40;99.90;;;;;;4989171;28;20085;-68
2023/02/25 02:24:58;;;;;;;7.50;0.60;;;4.40;99.90;;;;;;4989386;28;20142;-67
2023/02/25 02:27:55;;;;;;;5.22;0.80;;;4.50;99.90;;;;;;5006812;28;20081;-67
2023/02/25 02:30:34;;;;;;;8.60;1.60;;;4.50;99.90;;;;;;4998486;28;20507;-67
2023/02/25 02:33:08;;;;;;;13.55;1.30;;;4.50;99.90;;;;;;5006116;28;20408;-67
2023/02/25 02:35:52;;;;;;;9.07;1.60;;;4.50;99.90;;;;;;5015830;28;20038;-67
2023/02/25 02:38:26;;;;;;;12.93;2.10;;;4.50;99.90;;;;;;4985005;28;20125;-67
2023/02/25 02:41:14;;;;;;;13.45;1.55;;;4.60;99.90;;;;;;4993358;28;20054;-67
2023/02/25 02:43:47;;;;;;;12.20;1.83;;;4.60;99.90;;;;;;5017980;28;20524;-68
2023/02/25 02:46:31;;;;;;;13.70;1.73;;;4.70;99.90;;;;;;4977423;28;20049;-67
2023/02/25 02:49:10;;;;;;;15.13;1.50;;;4.70;99.90;;;;;;5007075;28;20419;-67
2023/02/25 02:52:13;;;;;;;16.25;2.40;;;4.70;99.90;;;;;;5010032;28;20049;-67
2023/02/25 02:54:41;;;;;;;10.90;1.85;;;4.70;99.90;;;;;;4972673;28;20105;-68
2023/02/25 02:57:09;;;;;;;9.57;1.42;;;4.70;99.90;;;;;;5010372;28;20513;-67
2023/02/25 02:59:51;;;;;;;11.73;1.67;;;4.70;99.90;;;;;;5000900;28;20095;-67
2023/02/25 03:02:29;;;;;;;9.65;1.40;;;4.70;99.90;;;;;;4993786;28;20077;-67
2023/02/25 03:05:04;;;;;;;7.18;1.30;;;4.60;99.90;;;;;;4990180;28;20069;-67
2023/02/25 03:07:32;;;;;;;10.75;0.95;;;4.60;99.90;;;;;;5000857;28;20038;-67
2023/02/25 03:10:02;;;;;;;7.57;1.02;;;4.60;99.90;;;;;;4996365;28;20042;-67
2023/02/25 03:12:28;;;;;;;6.82;0.90;;;4.60;99.90;;;;;;5007068;28;20054;-67
2023/02/25 03:14:55;;;;;;;8.98;1.25;;;4.60;99.90;;;;;;4995899;28;20049;-68
2023/02/25 03:17:27;;;;;;;9.68;1.30;;;4.70;99.90;;;;;;4995419;28;20044;-67
2023/02/25 03:20:09;;;;;;;14.63;2.05;;;4.60;99.90;;;;;;4989577;28;20057;-67
2023/02/25 03:22:41;;;;;;;20.98;1.77;;;4.70;99.90;;;;;;4988049;28;20595;-67
2023/02/25 03:25:22;;;;;;;9.93;1.52;;;4.70;99.90;;;;;;4989355;28;20058;-67
2023/02/25 03:27:51;;;;;;;15.90;1.67;;;4.80;99.90;;;;;;5001763;28;20057;-68
2023/02/25 03:30:31;;;;;;;19.88;3.13;;;4.80;99.90;;;;;;4991768;28;20046;-67
2023/02/25 03:33:03;;;;;;;7.57;1.30;;;4.80;99.90;;;;;;4991603;28;20081;-67
2023/02/25 03:35:31;;;;;;;6.95;1.00;;;4.90;99.90;;;;;;4988481;28;20523;-67
2023/02/25 03:38:08;;;;;;;4.95;0.80;;;4.80;99.90;;;;;;5014378;28;20057;-66
2023/02/25 03:40:36;;;;;;;11.85;1.38;;;4.80;99.90;;;;;;4991858;28;20052;-67
2023/02/25 03:43:10;;;;;;;9.95;1.30;;;4.60;99.90;;;;;;5010522;28;20050;-67
2023/02/25 03:45:39;;;;;;;9.95;0.80;;;4.20;99.90;;;;;;4982743;28;20496;-67
2023/02/25 03:48:06;;;;;;;5.93;0.82;;;3.80;99.90;;;;;;4992822;28;20049;-67
2023/02/25 03:50:37;;;;;;;12.63;0.93;;;3.70;99.90;;;;;;5000955;28;20618;-67
2023/02/25 03:53:04;;;;;;;6.53;0.77;;;3.70;99.90;;;;;;4996444;28;20041;-67
2023/02/25 03:55:29;;;;;;;5.60;0.60;;;3.80;99.90;;;;;;4993351;28;20050;-67
2023/02/25 03:57:55;;;;;;;9.95;1.02;;;3.80;99.90;;;;;;5003811;28;20125;-67
2023/02/25 04:00:33;;;;;;;9.07;1.20;;;4.00;99.90;;;;;;5012686;28;20042;-67
2023/02/25 04:02:59;;;;;;;13.95;1.80;;;4.10;99.90;;;;;;5010544;28;20037;-67
2023/02/25 04:05:26;;;;;;;8.57;1.05;;;4.20;99.90;;;;;;4991670;28;20050;-67
2023/02/25 04:07:53;;;;;;;9.63;1.55;;;4.20;99.90;;;;;;4992946;28;20054;-67
2023/02/25 04:10:20;;;;;;;17.90;2.85;;;4.30;99.90;;;;;;5008808;28;20054;-67
2023/02/25 04:12:46;;;;;;;18.65;2.35;;;4.40;99.90;;;;;;5010625;28;20492;-67
2023/02/25 04:15:15;;;;;;;23.77;3.00;;;4.50;99.90;;;;;;5008839;28;20123;-67
2023/02/25 04:17:41;;;;;;;24.05;2.78;;;4.50;99.90;;;;;;5010687;28;20065;-67
2023/02/25 04:20:08;;;;;;;19.30;2.17;;;4.60;99.90;;;;;;4991800;28;20045;-67
2023/02/25 04:22:33;;;;;;;22.13;2.20;;;4.80;99.90;;;;;;4991848;28;20068;-67
2023/02/25 04:24:59;;;;;;;25.35;3.17;;;4.90;99.90;;;;;;4998274;28;20045;-67
2023/02/25 04:27:26;;;;;;;26.60;2.30;;;5.00;99.90;;;;;;5015370;28;20510;-67
2023/02/25 04:29:51;;;;;;;17.70;2.58;;;5.00;99.90;;;;;;5010104;28;20046;-67
2023/02/25 04:32:17;;;;;;;18.33;2.35;;;4.90;99.90;;;;;;5008569;28;20050;-67
2023/02/25 04:34:43;;;;;;;12.38;1.67;;;4.90;99.90;;;;;;5010044;28;20463;-67
2023/02/25 04:37:09;;;;;;;16.25;2.30;;;4.90;99.90;;;;;;5000993;28;20140;-67
2023/02/25 04:39:35;;;;;;;25.30;2.40;;;4.90;99.90;;;;;;5009694;28;20503;-67
2023/02/25 04:42:01;;;;;;;31.02;3.75;;;4.90;99.90;;;;;;4991919;28;20128;-67
2023/02/25 04:44:27;;;;;;;31.98;2.78;;;4.80;99.90;;;;;;4991436;28;20468;-67
2023/02/25 04:46:53;;;;;;;19.55;2.70;;;4.70;99.90;;;;;;5005518;28;20061;-67
2023/02/25 04:49:20;;;;;;;19.60;2.58;;;4.70;99.90;;;;;;4994651;28;20045;-67
2023/02/25 04:51:50;;;;;;;32.88;3.20;;;4.80;99.90;;;;;;4992141;28;20117;-67
2023/02/25 04:54:20;;;;;;;9.77;1.90;;;4.80;99.90;;;;;;4995408;28;20048;-67
2023/02/25 04:56:47;;;;;;;29.40;3.27;;;4.80;99.90;;;;;;5012625;28;20103;-67
2023/02/25 04:59:13;;;;;;;23.63;2.72;;;4.80;99.90;;;;;;4991749;28;20050;-67
2023/02/25 05:01:39;;;;;;;12.35;2.13;;;4.90;99.90;;;;;;5013821;28;20053;-67
2023/02/25 05:04:05;;;;;;;16.38;2.63;;;4.80;99.90;;;;;;5009644;28;20380;-67
2023/02/25 05:06:31;;;;;;;18.42;2.03;;;4.80;99.90;;;;;;4996877;28;20092;-68
2023/02/25 05:08:57;;;;;;;20.02;3.60;;;4.70;99.90;;;;;;5023532;28;20044;-67
2023/02/25 05:11:27;;;;;;;14.52;2.40;;;4.70;99.90;;;;;;4997625;28;20045;-67
2023/02/25 05:13:55;;;;;;;11.68;2.38;;;4.70;99.90;;;;;;5016206;28;20053;-67
2023/02/25 05:16:22;;;;;;;18.73;2.72;;;4.70;99.90;;;;;;5003171;28;20564;-67
2023/02/25 05:18:47;;;;;;;15.57;2.20;;;4.70;99.90;;;;;;5008172;28;20038;-67
2023/02/25 05:21:16;;;;;;;19.38;2.38;;;4.70;99.90;;;;;;4991263;28;20050;-67
2023/02/25 05:23:44;;;;;;;22.50;2.67;;;4.70;99.90;;;;;;4990075;28;20405;-67
2023/02/25 05:26:11;;;;;;;22.27;3.38;;;4.70;99.90;;;;;;4992675;28;20049;-67
2023/02/25 05:28:37;;;;;;;19.25;2.08;;;4.60;99.90;;;;;;5016247;28;20072;-67
2023/02/25 05:31:07;;;;;;;15.60;2.47;;;4.70;99.90;;;;;;5014724;28;20108;-67
2023/02/25 05:33:34;;;;;;;18.70;2.45;;;4.60;99.90;;;;;;4991045;28;20076;-67
2023/02/25 05:36:00;;;;;;;15.85;2.15;;;4.60;99.90;;;;;;5008066;28;20042;-68
2023/02/25 05:38:29;;;;;;;21.10;2.88;;;4.60;99.90;;;;;;5022536;28;20050;-68
2023/02/25 05:40:54;;;;;;;20.48;2.45;;;4.60;99.90;;;;;;4990042;28;20054;-68
2023/02/25 05:43:21;;;;;;;17.58;2.50;;;4.60;99.90;;;;;;5008244;28;20084;-68
2023/02/25 05:45:54;;;;;;;16.25;2.70;;;4.60;99.90;;;;;;4983717;28;20056;-67
2023/02/25 05:48:20;;;;;;;16.30;2.63;;;4.60;99.90;;;;;;5022632;28;20045;-67
2023/02/25 05:50:49;;;;;;;22.75;2.38;;;4.70;99.90;;;;;;4990603;28;20042;-67
2023/02/25 05:53:16;;;;;;;11.85;2.58;;;4.70;99.90;;;;;;4989564;28;20045;-67
2023/02/25 05:55:42;;;;;;;22.42;2.60;;;4.70;99.90;;;;;;4999294;28;20053;-67
2023/02/25 05:58:08;;;;;;;21.30;2.55;;;4.70;99.90;;;;;;5002558;28;20029;-67
2023/02/25 06:00:35;;;;;;;20.33;2.50;;;4.80;99.90;;;;;;5013246;28;20087;-68
2023/02/25 06:03:00;;;;;;;15.73;2.22;;;4.80;99.90;;;;;;4991076;28;20125;-67
2023/02/25 06:05:29;;;;;;;16.48;1.85;;;4.80;99.90;;;;;;4990649;28;20116;-67
2023/02/25 06:07:56;;;;;;;16.85;2.13;;;4.80;99.90;;;;;;4994215;28;20049;-67
2023/02/25 06:10:23;;;;;;;12.77;1.90;;;4.80;99.90;;;;;;5010043;28;20576;-67
2023/02/25 06:12:48;;;;;;;22.83;4.20;;;4.80;99.90;;;;;;5004449;28;20060;-68
2023/02/25 06:15:14;;;;;;;17.25;2.47;;;4.70;99.90;;;;;;5017407;28;20124;-67
2023/02/25 06:17:40;;;;;;;14.57;2.17;;;4.70;99.90;;;;;;5036886;23;20055;-67
2023/02/25 06:20:06;;;;;;;14.68;2.00;;;4.70;99.90;;;;;;4969283;28;20081;-66
2023/02/25 06:22:32;;;;;;;20.63;2.88;;;4.80;99.90;;;;;;4965116;28;20550;-66
2023/02/25 06:24:58;;;;;;;17.83;2.45;;;4.90;99.90;;;;;;4938191;28;20038;-67
2023/02/25 06:27:24;;;;;;;7.70;1.33;;;4.90;99.90;;;;;;4951391;28;20101;-67
2023/02/25 06:29:49;;;;;;;15.02;2.55;;;4.90;99.90;;;;;;4967697;28;20046;-67
2023/02/25 06:32:15;;;;;;;10.57;1.85;;;4.90;99.90;;;;;;4968919;28;20085;-67
2023/02/25 06:34:41;;;;;;;12.93;2.08;;;4.90;99.80;;;;;;4963987;28;20049;-67
2023/02/25 06:37:08;;;;;;;9.07;1.60;;;4.90;98.60;;;;;;4968612;28;20047;-67
2023/02/25 06:39:42;;;;;;;18.40;2.05;;;4.90;98.90;;;;;;4937551;28;20643;-67
2023/02/25 06:42:08;;;;;;;8.25;1.98;;;5.00;99.90;;;;;;4967514;28;20062;-67
2023/02/25 06:44:37;;;;;;;12.85;1.77;;;5.00;98.80;;;;;;4968806;28;20065;-67
2023/02/25 06:47:03;;;;;;;16.15;2.42;;;5.00;98.10;;;;;;4950029;28;20051;-67
2023/02/25 06:49:29;;;;;;;11.52;1.45;;;5.00;99.80;;;;;;4968903;28;20051;-67
2023/02/25 06:51:54;;;;;;;18.17;2.40;;;5.00;99.90;;;;;;4950532;28;20078;-66
2023/02/25 06:54:20;;;;;;;16.60;2.75;;;5.00;99.30;;;;;;4968309;28;20501;-66
2023/02/25 06:56:46;;;;;;;13.05;2.35;;;5.00;99.30;;;;;;4935532;28;20045;-67
2023/02/25 06:59:13;;;;;;;30.85;3.28;;;5.00;99.70;;;;;;4936831;28;20511;-67
2023/02/25 07:01:39;;;;;;;23.10;4.00;;;5.00;99.80;;;;;;4954630;28;20061;-67
2023/02/25 07:04:05;;;;;;;11.70;2.03;;;4.90;99.90;;;;;;4962502;28;20050;-67
2023/02/25 07:06:31;;;;;;;28.33;3.70;;;4.90;99.90;;;;;;4952828;28;20050;-66
2023/02/25 07:08:56;;;;;;;16.73;2.83;;;4.80;99.90;;;;;;4968040;28;20509;-67
2023/02/25 07:11:32;;;;;;;16.35;2.55;;;4.80;99.20;;;;;;4973115;28;20493;-67
2023/02/25 07:13:58;;;;;;;14.30;2.47;;;4.70;97.00;;;;;;4957622;28;20060;-67
2023/02/25 07:16:23;;;;;;;14.63;2.20;;;4.60;95.90;;;;;;4971507;28;20492;-67
2023/02/25 07:18:49;;;;;;;9.18;1.63;;;4.50;95.80;;;;;;4979803;28;20089;-67
2023/02/25 07:21:16;;;;;;;8.80;1.70;;;4.40;92.70;;;;;;4970565;28;20106;-67
2023/02/25 07:23:43;;;;;;;8.93;1.73;;;4.40;91.30;;;;;;4972361;28;20501;-67
2023/02/25 07:26:10;;;;;;;7.20;1.40;;;4.30;92.00;;;;;;4970829;28;20043;-67
2023/02/25 07:28:36;;;;;;;12.88;2.10;;;4.40;90.70;;;;;;4963854;28;20060;-67
2023/02/25 07:31:14;;;;;;;20.98;2.45;;;4.40;88.40;;;;;;4955353;28;20053;-67
2023/02/25 07:33:40;;;;;;;12.13;2.35;;;4.30;85.70;;;;;;4953200;28;20476;-67
2023/02/25 07:36:07;;;;;;;10.38;1.90;;;4.30;87.10;;;;;;4954794;28;20065;-67
2023/02/25 07:38:33;;;;;;;8.70;1.50;;;4.30;87.20;;;;;;4951574;28;20046;-67
2023/02/25 07:41:07;;;;;;;13.95;2.03;;;4.30;85.70;;;;;;4973889;28;20153;-67
2023/02/25 07:43:33;;;;;;;7.75;1.33;;;4.30;86.70;;;;;;4983613;28;20041;-67
2023/02/25 07:45:59;;;;;;;16.70;2.15;;;4.30;84.20;;;;;;4972041;28;20054;-67
2023/02/25 07:48:26;;;;;;;15.43;2.15;;;4.30;84.50;;;;;;4975814;28;20046;-67
2023/02/25 07:50:52;;;;;;;8.43;1.50;;;4.40;83.50;;;;;;4953351;28;20543;-66
2023/02/25 07:53:21;;;;;;;14.80;2.42;;;4.30;82.60;;;;;;4954395;28;20038;-67
2023/02/25 07:55:47;;;;;;;14.40;2.28;;;4.30;80.70;;;;;;4953278;28;20059;-67
2023/02/25 07:58:14;;;;;;;13.40;2.13;;;4.40;84.70;;;;;;4974225;28;20043;-67
2023/02/25 08:00:40;;;;;;;10.90;1.83;;;4.40;88.00;;;;;;4969843;28;20058;-67
2023/02/25 08:03:07;;;;;;;13.73;1.95;;;4.50;86.70;;;;;;4971035;28;20050;-67
2023/02/25 08:05:35;;;;;;;11.80;2.25;;;4.50;91.60;;;;;;4953512;28;20050;-67
2023/02/25 08:08:01;;;;;;;12.85;2.55;;;4.40;85.60;;;;;;4954027;28;20061;-67
2023/02/25 08:10:26;;;;;;;17.00;2.75;;;4.50;80.60;;;;;;4940554;28;20047;-67
2023/02/25 08:12:52;;;;;;;11.23;2.15;;;4.50;79.00;;;;;;4967760;28;20046;-67
2023/02/25 08:15:18;;;;;;;10.75;1.77;;;4.50;77.30;;;;;;4962308;28;20125;-67
2023/02/25 08:17:44;;;;;;;15.70;2.10;;;4.60;78.50;;;;;;4971744;28;20102;-67
2023/02/25 08:20:10;;;;;;;13.02;2.42;;;4.60;78.40;;;;;;4947567;28;20526;-67
2023/02/25 08:22:36;;;;;;;12.10;2.10;;;4.60;78.60;;;;;;4972810;28;20106;-67
2023/02/25 08:25:03;;;;;;;26.08;3.08;;;4.60;76.70;;;;;;4963405;28;20054;-67
2023/02/25 08:27:29;;;;;;;8.25;2.17;;;4.60;78.90;;;;;;4955034;28;20062;-66
2023/02/25 08:29:56;;;;;;;11.82;2.03;;;4.50;75.30;;;;;;4953861;28;20165;-67
2023/02/25 08:32:24;;;;;;;6.38;1.40;;;4.50;77.60;;;;;;4970613;28;20086;-67
2023/02/25 08:34:52;;;;;;;14.55;2.45;;;4.60;81.00;;;;;;4969919;28;20550;-67
2023/02/25 08:37:18;;;;;;;13.23;2.47;;;4.60;78.10;;;;;;4960530;28;20053;-67
2023/02/25 08:39:44;;;;;;;11.95;2.75;;;4.60;76.30;;;;;;4956144;28;20542;-67
2023/02/25 08:42:10;;;;;;;10.10;1.67;;;4.60;73.60;;;;;;4981547;28;20030;-67
2023/02/25 08:44:37;;;;;;;13.02;1.85;;;4.70;77.20;;;;;;4957967;28;20051;-67
2023/02/25 08:47:03;;;;;;;11.35;2.25;;;4.80;75.30;;;;;;4988312;28;20093;-66
2023/02/25 08:49:30;;;;;;;9.80;2.17;;;5.00;71.10;;;;;;4988166;28;20046;-67
2023/02/25 08:51:56;;;;;;;13.35;2.88;;;5.00;68.40;;;;;;4960101;28;20093;-67
2023/02/25 08:54:22;;;;;;;14.05;1.35;;;5.00;66.10;;;;;;4961129;28;20059;-67
2023/02/25 08:56:53;;;;;;;15.77;2.53;;;4.70;56.10;;;;;;4955283;28;20038;-67
2023/02/25 08:59:18;;;;;;;16.15;2.10;;;4.80;59.00;;;;;;4962779;28;20055;-67
2023/02/25 09:01:44;;;;;;;11.70;2.03;;;4.70;55.90;;;;;;4954549;28;20053;-67
2023/02/25 09:04:16;;;;;;;12.40;2.13;;;4.60;39.50;;;;;;4964194;28;20123;-67
2023/02/25 09:06:42;;;;;;;5.95;1.80;;;4.70;47.40;;;;;;4958119;28;20508;-67
2023/02/25 09:09:10;;;;;;;9.85;2.05;;;4.80;41.40;;;;;;4969136;28;20970;-67
2023/02/25 09:11:36;;;;;;;11.45;1.45;;;4.70;37.30;;;;;;4971511;28;20054;-67
2023/02/25 09:14:01;;;;;;;9.50;1.63;;;4.80;34.80;;;;;;4964328;28;20050;-67
2023/02/25 09:16:28;;;;;;;9.63;1.58;;;4.90;43.30;;;;;;4967192;28;20062;-67
2023/02/25 09:18:54;;;;;;;6.07;1.30;;;4.90;38.00;;;;;;4969234;28;20051;-67
2023/02/25 09:21:20;;;;;;;8.63;1.38;;;5.00;34.70;;;;;;4951589;28;20085;-67
2023/02/25 09:23:46;;;;;;;13.65;1.48;;;4.90;32.50;;;;;;4962491;28;20046;-67
2023/02/25 09:26:13;;;;;;;8.20;1.77;;;4.90;34.70;;;;;;4972676;28;20038;-67
2023/02/25 09:28:38;;;;;;;9.82;1.95;;;4.90;37.90;;;;;;4972486;28;20066;-67
2023/02/25 09:31:04;;;;;;;6.85;1.35;;;5.10;46.60;;;;;;4951669;28;20039;-67
2023/02/25 09:33:32;;;;;;;5.22;0.88;;;5.10;40.30;;;;;;4955657;28;20038;-67
2023/02/25 09:36:07;;;;;;;8.57;1.88;;;5.00;36.90;;;;;;4956841;28;20043;-67
2023/02/25 09:38:38;;;;;;;5.60;1.67;;;5.00;50.00;;;;;;4978169;28;20490;-66
2023/02/25 09:41:23;;;;;;;10.38;2.10;;;5.00;40.90;;;;;;4959718;28;20121;-67
2023/02/25 09:44:01;;;;;;;11.73;2.03;;;4.80;41.60;;;;;;4957894;28;20455;-67
2023/02/25 09:46:29;;;;;;;5.88;1.95;;;4.50;42.70;;;;;;4968623;28;20046;-67
2023/02/25 09:49:08;;;;;;;13.13;1.77;;;4.40;43.80;;;;;;4950439;28;20090;-66
2023/02/25 09:51:39;;;;;;;13.57;1.98;;;4.30;40.20;;;;;;4956180;28;20046;-67
2023/02/25 09:54:26;;;;;;;5.03;1.40;;;4.20;38.40;;;;;;4964120;28;20110;-67
2023/02/25 09:56:54;;;;;;;10.73;2.00;;;4.20;38.90;;;;;;4976309;28;20046;-67
2023/02/25 09:59:23;;;;;;;11.32;1.38;;;4.40;42.50;;;;;;4973825;28;20071;-67
2023/02/25 10:02:13;;;;;;;6.57;1.33;;;4.80;37.90;;;;;;4936672;28;20130;-67
2023/02/25 10:04:51;;;;;;;11.65;2.22;;;4.90;34.40;;;;;;4962838;28;20047;-66
2023/02/25 10:07:48;;;;;;;5.80;1.65;;;5.00;35.10;;;;;;4971199;28;20042;-65
2023/02/25 10:10:29;;;;;;;11.10;2.28;;;5.00;32.30;;;;;;4942447;28;20047;-64
2023/02/25 10:13:13;;;;;;;6.40;1.40;;;5.00;32.10;;;;;;4972113;28;20493;-64
2023/02/25 10:15:47;;;;;;;8.30;2.30;;;5.00;30.20;;;;;;4977612;28;20496;-64
2023/02/25 10:18:25;;;;;;;5.82;1.30;;;5.00;33.30;;;;;;4971867;28;20050;-64
2023/02/25 10:21:27;;;;;;;10.65;1.83;;;5.00;30.60;;;;;;4974159;28;20150;-64
2023/02/25 10:24:33;;;;;;;7.28;1.83;;;5.10;31.80;;;;;;4903634;28;20046;-65
2023/02/25 10:27:16;;;;;;;10.25;1.92;;;5.20;30.70;;;;;;4965531;28;20062;-64
2023/02/25 10:29:48;;;;;;;6.97;1.80;;;5.10;29.60;;;;;;4965467;28;20042;-64
2023/02/25 10:32:26;;;;;;;9.48;1.70;;;5.10;28.10;;;;;;4978669;28;20097;-64
2023/02/25 10:34:56;;;;;;;8.40;1.27;;;5.20;26.90;;;;;;4969819;28;20061;-64
2023/02/25 10:37:31;;;;;;;12.07;1.48;;;5.20;27.20;;;;;;4970270;28;20133;-64
2023/02/25 10:40:00;;;;;;;7.15;1.83;;;5.30;31.30;;;;;;4971823;28;20051;-63
2023/02/25 10:42:26;;;;;;;7.43;1.17;;;5.30;28.00;;;;;;4951275;28;20560;-63
2023/02/25 10:44:52;;;;;;;6.90;1.33;;;5.20;22.00;;;;;;4968285;28;20046;-63
2023/02/25 10:47:33;;;;;;;9.75;1.48;;;5.30;31.50;;;;;;4968929;28;20082;-63
2023/02/25 10:50:27;;;;;;;4.68;1.33;;;5.40;34.20;;;;;;4951448;28;20217;-63
2023/02/25 10:53:03;;;;;;;5.15;1.42;;;5.30;27.10;;;;;;4967705;28;20046;-62
2023/02/25 10:55:50;;;;;;;5.60;1.58;;;5.20;26.40;;;;;;4980260;28;20082;-63
2023/02/25 10:58:26;;;;;;;10.48;1.60;;;5.00;29.50;;;;;;4975360;28;20051;-62
2023/02/25 11:00:59;;;;;;;7.05;1.73;;;5.30;32.60;;;;;;4975272;28;20080;-63
2023/02/25 11:03:28;;;;;;;11.95;1.75;;;5.30;23.40;;;;;;4960054;28;20055;-62
2023/02/25 11:06:16;;;;;;;7.07;1.30;;;5.30;23.50;;;;;;4978313;28;20555;-62
2023/02/25 11:08:43;;;;;;;8.75;1.50;;;5.40;23.50;;;;;;4978076;28;20046;-62
2023/02/25 11:11:11;;;;;;;8.52;1.50;;;5.40;22.30;;;;;;4951969;28;20097;-63
2023/02/25 11:13:37;;;;;;;4.70;1.38;;;5.30;17.60;;;;;;4969659;28;20047;-62
2023/02/25 11:16:07;;;;;;;10.15;1.60;;;5.40;26.40;;;;;;4971995;28;20112;-62
2023/02/25 11:18:34;;;;;;;8.95;1.67;;;5.50;23.00;;;;;;4969104;28;20094;-63
2023/02/25 11:21:05;;;;;;;8.35;1.65;;;5.60;24.00;;;;;;4969251;28;20110;-62
2023/02/25 11:23:47;;;;;;;16.60;2.67;;;5.60;26.40;;;;;;4967569;28;20086;-62
2023/02/25 11:26:31;;;;;;;11.85;2.75;;;5.60;21.80;;;;;;4974526;28;20047;-62
2023/02/25 11:29:13;;;;;;;7.97;1.30;;;5.60;21.50;;;;;;4972583;28;20055;-62
2023/02/25 11:31:40;;;;;;;6.38;1.73;;;5.50;19.30;;;;;;4971111;28;20043;-64
2023/02/25 11:34:21;;;;;;;3.45;1.40;;;5.50;18.60;;;;;;4967617;28;20519;-64
2023/02/25 11:36:48;;;;;;;7.95;1.85;;;5.50;18.10;;;;;;4977424;28;20051;-63
2023/02/25 11:39:18;;;;;;;13.43;1.55;;;5.50;18.50;;;;;;4972648;28;20129;-63
2023/02/25 11:41:49;;;;;;;8.07;1.20;;;5.50;18.10;;;;;;4973045;28;20046;-63
2023/02/25 11:44:50;;;;;;;11.63;1.95;;;5.50;25.10;;;;;;4965745;28;20050;-63
2023/02/25 11:47:30;;;;;;;10.23;1.77;;;5.50;24.60;;;;;;4941346;28;20058;-63
2023/02/25 11:50:05;;;;;;;6.13;1.50;;;5.60;25.60;;;;;;4970647;28;20536;-63
2023/02/25 11:52:36;;;;;;;10.93;2.40;;;5.60;23.10;;;;;;4977037;28;20298;-63
2023/02/25 11:55:19;;;;;;;8.55;2.22;;;5.40;20.80;;;;;;4971831;28;20039;-63
2023/02/25 11:58:25;;;;;;;4.78;1.35;;;5.40;22.20;;;;;;4969731;28;20436;-63
2023/02/25 12:01:12;;;;;;;7.93;2.13;;;5.50;20.20;;;;;;4981173;28;20105;-63
2023/02/25 12:04:07;;;;;;;8.05;1.80;;;5.60;14.90;;;;;;4973618;28;20049;-63
2023/02/25 12:06:54;;;;;;;5.30;1.70;;;5.60;16.70;;;;;;4976359;28;20089;-63
2023/02/25 12:10:25;;;;;;;9.73;1.95;;;5.50;16.70;;;;;;4979074;28;20054;-63
2023/02/25 12:12:54;;;;;;;7.55;1.85;;;5.50;21.90;;;;;;4928002;28;20078;-63
2023/02/25 12:15:54;;;;;;;3.80;1.35;;;5.50;18.90;;;;;;4974437;28;20042;-63
2023/02/25 12:18:52;;;;;;;12.15;1.58;;;5.50;17.90;;;;;;4978860;28;20049;-63
2023/02/25 12:21:42;;;;;;;8.00;1.60;;;5.70;19.20;;;;;;4945426;28;20160;-63
2023/02/25 12:24:57;;;;;;;11.48;1.65;;;5.50;14.90;;;;;;4970703;28;20571;-63
2023/02/25 12:27:46;;;;;;;7.53;1.20;;;5.60;15.20;;;;;;4940857;28;20088;-63
2023/02/25 12:30:40;;;;;;;4.07;0.90;;;5.60;12.00;;;;;;4977830;28;20046;-62
2023/02/25 12:33:18;;;;;;;4.40;1.42;;;5.50;14.20;;;;;;4966465;28;20567;-62
2023/02/25 12:36:20;;;;;;;5.20;1.17;;;5.60;15.80;;;;;;4989029;28;20141;-63
2023/02/25 12:39:07;;;;;;;11.35;2.00;;;5.50;16.10;;;;;;4970849;28;20096;-62
2023/02/25 12:42:02;;;;;;;9.93;1.90;;;5.60;22.10;;;;;;4970837;28;20661;-62
2023/02/25 12:44:52;;;;;;;10.45;1.73;;;5.60;22.80;;;;;;4983690;28;20049;-62
2023/02/25 12:47:26;;;;;;;12.50;2.08;;;5.60;24.50;;;;;;4978444;28;20560;-62
2023/02/25 12:49:58;;;;;;;7.57;1.23;;;5.80;19.20;;;;;;4986923;28;20129;-62
2023/02/25 12:52:36;;;;;;;3.65;1.40;;;5.60;17.60;;;;;;4964615;28;20047;-63
2023/02/25 12:55:07;;;;;;;7.95;1.48;;;5.50;14.70;;;;;;4971708;28;20098;-62
2023/02/25 12:57:48;;;;;;;10.20;1.83;;;5.60;23.80;;;;;;4969325;28;20416;-62
2023/02/25 13:00:32;;;;;;;12.48;2.10;;;5.70;21.70;;;;;;4963511;28;20047;-62
2023/02/25 13:03:20;;;;;;;9.65;2.03;;;5.50;19.90;;;;;;4968429;28;20043;-62
2023/02/25 13:06:27;;;;;;;6.93;1.88;;;5.40;19.60;;;;;;4971649;28;20101;-62
2023/02/25 13:09:11;;;;;;;9.77;2.20;;;5.30;20.90;;;;;;4961929;28;20125;-62
2023/02/25 13:12:13;;;;;;;9.77;2.20;;;5.40;20.40;;;;;;4962734;28;20066;-62
2023/02/25 13:15:15;;;;;;;12.45;1.85;;;5.60;18.80;;;;;;4980741;28;20501;-62